createdAt,value
2022-10-17T00:00:39.985Z,94.77
2022-10-17T00:06:06.744Z,94.98
2022-10-17T00:11:17.834Z,94.96
2022-10-17T00:16:32.308Z,94.82
2022-10-17T00:21:34.184Z,94.84
2022-10-17T00:26:36.165Z,94.76
2022-10-17T00:31:37.985Z,94.53
2022-10-17T00:36:39.919Z,94.75
2022-10-17T00:41:41.795Z,94.71
2022-10-17T00:46:43.673Z,94.46
2022-10-17T00:51:58.759Z,94.84
2022-10-17T00:57:01.253Z,94.75
2022-10-17T01:02:06.406Z,94.86
2022-10-17T01:07:09.511Z,94.63
2022-10-17T01:12:14.154Z,94.72
2022-10-17T01:17:25.043Z,95.00
2022-10-17T01:22:36.854Z,94.91
2022-10-17T01:27:51.325Z,94.89
2022-10-17T01:33:21.364Z,95.12
2022-10-17T01:38:31.739Z,95.18
2022-10-17T01:43:59.434Z,95.63
2022-10-17T01:49:04.472Z,95.19
2022-10-17T01:54:12.596Z,95.49
2022-10-17T01:59:19.593Z,95.57
2022-10-17T02:04:22.084Z,95.27
2022-10-17T02:09:26.420Z,95.08
2022-10-17T02:14:47.035Z,95.29
2022-10-17T02:20:30.386Z,94.86
2022-10-17T02:25:44.347Z,94.98
2022-10-17T02:30:57.795Z,95.14
2022-10-17T02:36:07.046Z,94.92
2022-10-17T02:41:12.313Z,95.40
2022-10-17T02:46:22.677Z,95.10
2022-10-17T02:51:59.475Z,95.20
2022-10-17T02:57:10.160Z,95.52
2022-10-17T03:02:12.343Z,95.52
2022-10-17T03:07:14.218Z,95.80
2022-10-17T03:12:15.995Z,95.70
2022-10-17T03:17:17.870Z,95.47
2022-10-17T03:22:19.750Z,95.35
2022-10-17T03:27:21.627Z,95.05
2022-10-17T03:32:23.501Z,95.26
2022-10-17T03:37:25.485Z,95.61
2022-10-17T03:42:27.361Z,96.08
2022-10-17T03:47:29.518Z,95.80
2022-10-17T03:52:31.526Z,95.98
2022-10-17T03:57:35.763Z,96.07
2022-10-17T04:02:37.427Z,95.86
2022-10-17T04:07:39.306Z,95.83
2022-10-17T04:12:41.287Z,95.64
2022-10-17T04:17:43.162Z,94.98
2022-10-17T04:22:45.040Z,94.52
2022-10-17T04:27:48.554Z,94.11
2022-10-17T04:32:50.535Z,94.73
2022-10-17T04:37:52.410Z,95.02
2022-10-17T04:42:54.289Z,94.96
2022-10-17T04:47:56.985Z,94.77
2022-10-17T04:52:59.581Z,94.92
2022-10-17T04:58:01.455Z,95.11
2022-10-17T05:03:03.537Z,95.09
2022-10-17T05:08:06.388Z,94.95
2022-10-17T05:13:09.652Z,94.72
2022-10-17T05:18:11.661Z,95.05
2022-10-17T05:23:13.503Z,95.08
2022-10-17T05:28:15.382Z,95.00
2022-10-17T05:33:17.259Z,95.03
2022-10-17T05:38:19.136Z,95.37
2022-10-17T05:43:21.118Z,95.64
2022-10-17T05:48:23.721Z,95.74
2022-10-17T05:53:25.892Z,95.48
2022-10-17T06:03:50.543Z,94.65
2022-10-17T06:08:52.517Z,94.24
2022-10-17T06:13:54.598Z,94.64
2022-10-17T06:18:56.478Z,95.00
2022-10-17T06:23:58.355Z,94.93
2022-10-17T06:29:00.390Z,94.82
2022-10-17T06:34:02.321Z,94.95
2022-10-17T06:39:04.191Z,95.59
2022-10-17T06:44:10.801Z,95.81
2022-10-17T06:49:12.757Z,95.92
2022-10-17T06:54:14.940Z,96.05
2022-10-17T06:59:16.921Z,95.86
2022-10-17T07:04:19.309Z,96.11
2022-10-17T07:09:22.421Z,96.80
2022-10-17T07:14:31.358Z,96.78
2022-10-17T07:19:33.236Z,96.27
2022-10-17T07:24:35.319Z,96.31
2022-10-17T07:29:37.400Z,96.60
2022-10-17T07:34:39.279Z,96.75
2022-10-17T07:39:41.163Z,96.70
2022-10-17T07:44:45.694Z,96.53
2022-10-17T07:49:47.569Z,96.63
2022-10-17T07:54:49.857Z,96.40
2022-10-17T07:59:52.655Z,96.09
2022-10-17T08:04:54.739Z,96.00
2022-10-17T08:09:56.947Z,95.64
2022-10-17T08:14:59.004Z,95.19
2022-10-17T08:20:00.984Z,95.09
2022-10-17T08:25:02.970Z,95.44
2022-10-17T08:30:05.354Z,96.00
2022-10-17T08:35:07.843Z,95.95
2022-10-17T08:40:20.575Z,95.09
2022-10-17T08:45:48.973Z,94.77
2022-10-17T08:50:55.765Z,93.72
2022-10-17T08:56:04.576Z,93.83
2022-10-17T09:01:36.804Z,94.17
2022-10-17T09:06:53.418Z,94.12
2022-10-17T09:12:18.641Z,94.16
2022-10-17T09:17:38.848Z,93.89
2022-10-17T09:23:06.839Z,93.88
2022-10-17T09:28:30.364Z,94.07
2022-10-17T09:33:59.450Z,94.06
2022-10-17T09:39:11.964Z,93.97
2022-10-17T09:44:22.090Z,94.07
2022-10-17T09:49:36.197Z,93.75
2022-10-17T09:54:53.695Z,93.34
2022-10-17T10:00:02.482Z,92.88
2022-10-17T10:05:20.991Z,92.30
2022-10-17T10:10:27.853Z,91.59
2022-10-17T10:15:37.353Z,91.14
2022-10-17T10:20:40.301Z,90.65
2022-10-17T10:25:55.905Z,90.05
2022-10-17T10:31:02.078Z,89.68
2022-10-17T10:36:07.406Z,89.34
2022-10-17T10:41:11.361Z,88.75
2022-10-17T10:46:31.465Z,88.23
2022-10-17T10:51:52.080Z,87.88
2022-10-17T10:56:57.852Z,87.69
2022-10-17T11:01:59.757Z,87.18
2022-10-17T11:07:11.230Z,86.67
2022-10-17T11:12:25.808Z,86.08
2022-10-17T11:17:49.493Z,85.56
2022-10-17T11:22:57.412Z,84.93
2022-10-17T11:28:04.660Z,84.93
2022-10-17T11:33:12.123Z,83.90
2022-10-17T11:38:20.861Z,84.28
2022-10-17T11:43:32.059Z,83.61
2022-10-17T11:48:45.608Z,83.15
2022-10-17T11:53:50.046Z,82.95
2022-10-17T11:59:15.477Z,82.53
2022-10-17T12:04:29.986Z,82.30
2022-10-17T12:09:45.754Z,82.10
2022-10-17T12:14:48.038Z,81.64
2022-10-17T12:19:49.916Z,81.15
2022-10-17T12:24:58.187Z,80.97
2022-10-17T12:30:24.495Z,80.10
2022-10-17T12:35:28.111Z,79.84
2022-10-17T12:40:36.134Z,79.17
2022-10-17T12:45:45.895Z,78.15
2022-10-17T12:56:45.683Z,76.88
2022-10-17T13:01:52.913Z,76.65
2022-10-17T13:06:58.682Z,76.11
2022-10-17T13:12:04.496Z,76.07
2022-10-17T13:17:22.666Z,75.27
2022-10-17T13:22:28.938Z,75.29
2022-10-17T13:27:33.993Z,75.04
2022-10-17T13:32:38.942Z,74.76
2022-10-17T13:37:43.381Z,74.32
2022-10-17T13:42:46.587Z,74.42
2022-10-17T13:47:48.670Z,74.11
2022-10-17T13:53:15.535Z,74.03
2022-10-17T13:58:18.536Z,73.95
2022-10-17T14:03:31.828Z,73.71
2022-10-17T14:48:23.230Z,67.35
2022-10-17T14:53:30.221Z,67.57
2022-10-17T14:58:34.129Z,67.61
2022-10-17T15:03:37.426Z,67.58
2022-10-17T15:08:40.722Z,67.91
2022-10-17T15:13:45.683Z,67.85
2022-10-17T15:18:49.826Z,68.20
2022-10-17T15:23:53.240Z,68.44
2022-10-17T15:28:56.385Z,68.89
2022-10-17T15:33:59.657Z,69.19
2022-10-17T15:39:03.583Z,69.47
2022-10-17T15:44:06.997Z,69.84
2022-10-17T15:49:13.815Z,70.10
2022-10-17T15:54:17.000Z,70.27
2022-10-17T15:59:24.606Z,70.47
2022-10-17T16:04:29.453Z,70.87
2022-10-17T16:09:33.688Z,71.13
2022-10-17T16:14:36.794Z,71.43
2022-10-17T16:19:40.105Z,71.55
2022-10-17T16:24:43.210Z,71.81
2022-10-17T16:29:46.317Z,72.24
2022-10-17T16:34:49.524Z,72.34
2022-10-17T16:39:53.966Z,72.70
2022-10-17T16:44:57.174Z,72.98
2022-10-17T16:50:00.480Z,73.23
2022-10-17T16:55:03.791Z,73.38
2022-10-17T17:00:08.233Z,73.74
2022-10-17T17:05:11.964Z,73.89
2022-10-17T17:10:15.260Z,74.20
2022-10-17T17:15:18.467Z,74.50
2022-10-17T17:20:21.579Z,74.69
2022-10-17T17:25:25.088Z,74.83
2022-10-17T17:30:29.937Z,75.18
2022-10-17T17:35:33.044Z,75.66
2022-10-17T17:40:36.351Z,75.95
2022-10-17T17:45:39.868Z,76.43
2022-10-17T17:50:44.479Z,77.07
2022-10-17T17:55:47.719Z,77.39
2022-10-17T18:00:50.944Z,77.75
2022-10-17T18:05:54.552Z,77.82
2022-10-17T18:10:58.982Z,78.08
2022-10-17T18:16:03.009Z,78.32
2022-10-17T18:21:06.629Z,78.44
2022-10-17T18:26:10.862Z,78.59
2022-10-17T18:31:19.163Z,78.69
2022-10-17T18:36:22.910Z,78.70
2022-10-17T18:41:27.142Z,79.01
2022-10-17T18:46:36.296Z,79.14
2022-10-17T18:51:40.729Z,79.11
2022-10-17T18:56:45.197Z,79.21
2022-10-17T19:01:48.569Z,79.32
2022-10-17T19:06:51.991Z,79.44
2022-10-17T19:11:55.608Z,79.46
2022-10-17T19:17:00.151Z,79.69
2022-10-17T19:22:03.869Z,79.69
2022-10-17T19:27:07.181Z,79.84
2022-10-17T19:32:15.725Z,79.97
2022-10-17T19:37:21.383Z,80.17
2022-10-17T19:42:24.587Z,80.30
2022-10-17T19:47:27.897Z,80.54
2022-10-17T19:52:31.271Z,80.58
2022-10-17T19:57:36.671Z,80.83
2022-10-17T20:02:39.879Z,81.16
2022-10-17T20:07:43.086Z,81.31
2022-10-17T20:12:46.603Z,81.36
2022-10-17T21:03:17.765Z,80.93
2022-10-17T21:08:19.642Z,80.75
2022-10-17T21:13:21.522Z,80.79
2022-10-17T21:18:23.400Z,80.81
2022-10-17T21:23:25.281Z,80.94
2022-10-17T21:28:27.173Z,80.99
2022-10-17T21:33:29.026Z,80.93
2022-10-17T21:38:31.109Z,80.87
2022-10-17T21:43:34.216Z,80.93
2022-10-17T21:48:35.996Z,81.16
2022-10-17T21:53:38.276Z,81.25
2022-10-17T21:58:40.878Z,81.55
2022-10-17T22:03:46.729Z,81.57
2022-10-17T22:08:49.338Z,82.09
2022-10-17T22:14:00.752Z,81.93
2022-10-17T22:19:06.468Z,82.27
2022-10-17T22:24:12.339Z,82.24
2022-10-17T22:29:15.281Z,82.35
2022-10-17T22:34:18.190Z,82.27
2022-10-17T22:39:20.058Z,82.36
2022-10-17T22:44:21.871Z,82.35
2022-10-17T22:49:23.707Z,82.39
2022-10-17T22:54:25.583Z,82.53
2022-10-17T22:59:27.461Z,82.80
2022-10-17T23:04:29.339Z,82.66
2022-10-17T23:09:31.217Z,82.88
2022-10-17T23:14:36.965Z,83.00
2022-10-17T23:19:39.782Z,83.20
2022-10-17T23:24:41.558Z,83.26
2022-10-17T23:29:43.435Z,83.37
2022-10-17T23:34:45.313Z,83.59
2022-10-17T23:39:47.292Z,83.90
2022-10-17T23:44:49.273Z,84.06
2022-10-17T23:49:51.155Z,84.18
2022-10-17T23:54:53.742Z,84.24
2022-10-17T23:59:55.727Z,84.33
